createdAt,value
2024-04-21T00:00:12.461Z,95210.00
2024-04-21T00:01:12.550Z,95208.00
2024-04-21T00:02:12.436Z,95207.00
2024-04-21T00:03:46.497Z,95207.00
2024-04-21T00:04:47.459Z,95207.00
2024-04-21T00:05:47.300Z,95206.00
2024-04-21T00:06:47.316Z,95204.00
2024-04-21T00:07:47.302Z,95205.00
2024-04-21T00:08:47.311Z,95203.00
2024-04-21T00:09:47.328Z,95201.00
2024-04-21T00:10:47.331Z,95204.00
2024-04-21T00:11:47.316Z,95201.00
2024-04-21T00:12:47.321Z,95204.00
2024-04-21T00:13:47.341Z,95204.00
2024-04-21T00:14:47.318Z,95204.00
2024-04-21T00:15:47.407Z,95203.00
2024-04-21T00:16:47.568Z,95203.00
2024-04-21T00:17:47.555Z,95201.00
2024-04-21T00:18:47.674Z,95202.00
2024-04-21T00:19:47.749Z,95200.00
2024-04-21T00:20:47.850Z,95200.00
2024-04-21T00:21:48.044Z,95198.00
2024-04-21T00:22:48.080Z,95196.00
2024-04-21T00:23:48.178Z,95194.00
2024-04-21T00:24:48.324Z,95191.00
2024-04-21T00:25:48.343Z,95188.00
2024-04-21T00:26:48.451Z,95186.00
2024-04-21T00:27:48.537Z,95186.00
2024-04-21T00:28:48.557Z,95181.00
2024-04-21T00:29:48.656Z,95181.00
2024-04-21T00:30:48.714Z,95179.00
2024-04-21T00:31:48.791Z,95179.00
2024-04-21T00:32:48.944Z,95180.00
2024-04-21T00:33:49.045Z,95177.00
2024-04-21T00:34:49.009Z,95179.00
2024-04-21T00:35:49.078Z,95180.00
2024-04-21T00:36:49.181Z,95178.00
2024-04-21T00:37:49.223Z,95177.00
2024-04-21T00:38:49.298Z,95175.00
2024-04-21T00:39:49.435Z,95175.00
2024-04-21T00:40:49.457Z,95173.00
2024-04-21T00:41:49.538Z,95174.00
2024-04-21T00:42:49.608Z,95174.00
2024-04-21T00:43:49.654Z,95173.00
2024-04-21T00:44:49.728Z,95174.00
2024-04-21T00:45:49.825Z,95175.00
2024-04-21T00:46:49.939Z,95176.00
2024-04-21T00:47:50.007Z,95176.00
2024-04-21T00:48:50.042Z,95176.00
2024-04-21T00:49:50.108Z,95177.00
2024-04-21T00:50:50.169Z,95175.00
2024-04-21T00:51:50.274Z,95175.00
2024-04-21T00:52:50.324Z,95174.00
2024-04-21T00:53:50.394Z,95175.00
2024-04-21T00:54:50.517Z,95174.00
2024-04-21T00:55:50.542Z,95174.00
2024-04-21T00:56:50.607Z,95175.00
2024-04-21T00:57:50.728Z,95172.00
2024-04-21T00:58:50.761Z,95171.00
2024-04-21T00:59:50.839Z,95172.00
2024-04-21T01:00:50.982Z,95171.00
2024-04-21T01:01:51.058Z,95171.00
2024-04-21T01:02:51.088Z,95169.00
2024-04-21T01:03:51.290Z,95169.00
2024-04-21T01:04:51.292Z,95170.00
2024-04-21T01:05:53.339Z,95166.00
2024-04-21T01:06:51.389Z,95167.00
2024-04-21T01:07:51.299Z,95167.00
2024-04-21T01:08:51.333Z,95167.00
2024-04-21T01:09:51.381Z,95166.00
2024-04-21T01:10:51.356Z,95164.00
2024-04-21T01:11:51.406Z,95163.00
2024-04-21T01:12:51.388Z,95161.00
2024-04-21T01:13:51.342Z,95160.00
2024-04-21T01:14:51.375Z,95162.00
2024-04-21T01:15:51.365Z,95160.00
2024-04-21T01:16:51.358Z,95158.00
2024-04-21T01:17:51.527Z,95159.00
2024-04-21T01:18:51.423Z,95158.00
2024-04-21T01:19:51.381Z,95157.00
2024-04-21T01:20:51.376Z,95159.00
2024-04-21T01:21:51.387Z,95157.00
2024-04-21T01:22:51.380Z,95157.00
2024-04-21T01:23:51.398Z,95156.00
2024-04-21T01:24:51.413Z,95153.00
2024-04-21T01:25:51.394Z,95153.00
2024-04-21T01:26:51.382Z,95151.00
2024-04-21T01:27:51.403Z,95152.00
2024-04-21T01:29:47.964Z,95151.00
2024-04-21T01:30:48.980Z,95150.00
2024-04-21T01:31:48.959Z,95151.00
2024-04-21T01:32:48.985Z,95149.00
2024-04-21T01:33:48.995Z,95148.00
2024-04-21T01:34:48.984Z,95149.00
2024-04-21T01:35:48.955Z,95146.00
2024-04-21T01:36:48.981Z,95147.00
2024-04-21T01:37:49.005Z,95148.00
2024-04-21T01:38:49.005Z,95144.00
2024-04-21T01:39:49.053Z,95145.00
2024-04-21T01:40:49.019Z,95143.00
2024-04-21T01:41:48.994Z,95142.00
2024-04-21T01:42:49.034Z,95142.00
2024-04-21T01:43:49.002Z,95139.00
2024-04-21T01:44:49.023Z,95140.00
2024-04-21T01:45:49.104Z,95138.00
2024-04-21T01:46:49.196Z,95137.00
2024-04-21T01:47:49.274Z,95134.00
2024-04-21T01:48:49.365Z,95134.00
2024-04-21T01:49:49.403Z,95132.00
2024-04-21T01:50:49.466Z,95132.00
2024-04-21T01:51:49.608Z,95130.00
2024-04-21T01:52:49.689Z,95128.00
2024-04-21T01:53:49.685Z,95127.00
2024-04-21T01:54:49.856Z,95126.00
2024-04-21T01:55:49.832Z,95126.00
2024-04-21T01:56:49.936Z,95124.00
2024-04-21T01:57:50.007Z,95123.00
2024-04-21T01:58:50.066Z,95124.00
2024-04-21T01:59:50.144Z,95123.00
2024-04-21T02:00:50.314Z,95122.00
2024-04-21T02:01:50.292Z,95122.00
2024-04-21T02:02:50.437Z,95121.00
2024-04-21T02:03:50.510Z,95122.00
2024-04-21T02:04:50.526Z,95120.00
2024-04-21T02:05:50.610Z,95120.00
2024-04-21T02:06:50.730Z,95119.00
2024-04-21T02:07:50.739Z,95117.00
2024-04-21T02:08:50.816Z,95117.00
2024-04-21T02:09:50.926Z,95115.00
2024-04-21T02:10:50.967Z,95113.00
2024-04-21T02:11:51.070Z,95113.00
2024-04-21T02:12:51.145Z,95113.00
2024-04-21T02:13:51.203Z,95111.00
2024-04-21T02:14:51.284Z,95108.00
2024-04-21T02:15:51.410Z,95107.00
2024-04-21T02:16:51.445Z,95110.00
2024-04-21T02:17:51.545Z,95105.00
2024-04-21T02:18:51.599Z,95104.00
2024-04-21T02:19:51.664Z,95104.00
2024-04-21T02:20:51.740Z,95101.00
2024-04-21T02:21:51.836Z,95098.00
2024-04-21T02:22:51.872Z,95095.00
2024-04-21T02:23:51.957Z,95094.00
2024-04-21T02:24:52.116Z,95094.00
2024-04-21T02:25:52.121Z,95093.00
2024-04-21T02:26:52.188Z,95091.00
2024-04-21T02:27:52.283Z,95090.00
2024-04-21T02:28:52.356Z,95089.00
2024-04-21T02:29:52.461Z,95088.00
2024-04-21T02:30:52.511Z,95086.00
2024-04-21T02:31:52.578Z,95085.00
2024-04-21T02:32:52.688Z,95085.00
2024-04-21T02:33:52.791Z,95085.00
2024-04-21T02:34:52.801Z,95086.00
2024-04-21T02:35:52.873Z,95085.00
2024-04-21T02:36:52.972Z,95084.00
2024-04-21T02:37:53.042Z,95085.00
2024-04-21T02:38:53.125Z,95085.00
2024-04-21T02:39:53.197Z,95085.00
2024-04-21T02:40:53.263Z,95085.00
2024-04-21T02:41:53.334Z,95087.00
2024-04-21T02:42:53.440Z,95090.00
2024-04-21T02:43:53.503Z,95087.00
2024-04-21T02:44:53.585Z,95088.00
2024-04-21T02:45:53.648Z,95088.00
2024-04-21T02:46:53.741Z,95087.00
2024-04-21T02:47:53.821Z,95090.00
2024-04-21T02:48:53.951Z,95089.00
2024-04-21T02:49:53.949Z,95087.00
2024-04-21T02:50:54.019Z,95090.00
2024-04-21T02:51:54.106Z,95090.00
2024-04-21T02:52:54.160Z,95090.00
2024-04-21T02:53:54.263Z,95087.00
2024-04-21T02:54:54.337Z,95089.00
2024-04-21T02:55:54.387Z,95088.00
2024-04-21T02:56:54.468Z,95087.00
2024-04-21T02:57:54.536Z,95086.00
2024-04-21T02:58:54.614Z,95085.00
2024-04-21T02:59:54.679Z,95085.00
2024-04-21T03:00:54.815Z,95083.00
2024-04-21T03:01:54.834Z,95082.00
2024-04-21T03:02:54.938Z,95082.00
2024-04-21T03:03:55.072Z,95081.00
2024-04-21T03:04:55.112Z,95079.00
2024-04-21T03:05:55.115Z,95081.00
2024-04-21T03:06:55.240Z,95077.00
2024-04-21T03:07:55.263Z,95075.00
2024-04-21T03:08:55.361Z,95075.00
2024-04-21T03:09:55.453Z,95074.00
2024-04-21T03:10:55.497Z,95072.00
2024-04-21T03:11:55.567Z,95073.00
2024-04-21T03:12:55.679Z,95072.00
2024-04-21T03:13:55.723Z,95071.00
2024-04-21T03:14:55.797Z,95070.00
2024-04-21T03:15:55.963Z,95069.00
2024-04-21T03:16:55.962Z,95068.00
2024-04-21T03:17:56.054Z,95066.00
2024-04-21T03:18:56.120Z,95066.00
2024-04-21T03:19:56.158Z,95064.00
2024-04-21T03:20:56.240Z,95066.00
2024-04-21T03:21:56.350Z,95064.00
2024-04-21T03:22:56.407Z,95063.00
2024-04-21T03:23:56.556Z,95062.00
2024-04-21T03:24:56.612Z,95063.00
2024-04-21T03:25:56.671Z,95060.00
2024-04-21T03:26:56.737Z,95058.00
2024-04-21T03:27:56.847Z,95056.00
2024-04-21T03:28:56.877Z,95056.00
2024-04-21T03:29:57.036Z,95052.00
2024-04-21T03:30:57.124Z,95052.00
2024-04-21T03:31:57.114Z,95052.00
2024-04-21T03:32:57.353Z,95051.00
2024-04-21T03:33:57.297Z,95048.00
2024-04-21T03:34:57.370Z,95049.00
2024-04-21T03:35:57.420Z,95049.00
2024-04-21T03:36:57.525Z,95051.00
2024-04-21T03:37:57.578Z,95047.00
2024-04-21T03:38:57.680Z,95047.00
2024-04-21T03:39:57.879Z,95047.00
2024-04-21T03:40:57.800Z,95046.00
2024-04-21T03:41:57.892Z,95044.00
2024-04-21T03:42:57.975Z,95044.00
2024-04-21T03:43:58.045Z,95045.00
2024-04-21T03:44:58.193Z,95043.00
2024-04-21T03:45:58.257Z,95042.00
2024-04-21T03:46:58.293Z,95043.00
2024-04-21T03:47:58.423Z,95042.00
2024-04-21T03:48:58.428Z,95042.00
2024-04-21T03:49:58.483Z,95041.00
2024-04-21T03:50:58.552Z,95041.00
2024-04-21T03:51:58.633Z,95042.00
2024-04-21T03:52:58.693Z,95041.00
2024-04-21T03:53:58.780Z,95039.00
2024-04-21T03:54:58.845Z,95039.00
2024-04-21T03:55:58.913Z,95038.00
2024-04-21T03:56:58.984Z,95036.00
2024-04-21T03:57:59.111Z,95035.00
2024-04-21T03:58:59.110Z,95038.00
2024-04-21T03:59:59.192Z,95036.00
2024-04-21T04:00:59.278Z,95035.00
2024-04-21T04:01:59.319Z,95034.00
2024-04-21T04:02:59.407Z,95035.00
2024-04-21T04:03:59.513Z,95035.00
2024-04-21T04:04:59.596Z,95033.00
2024-04-21T04:05:59.568Z,95033.00
2024-04-21T04:06:59.687Z,95029.00
2024-04-21T04:07:59.703Z,95029.00
2024-04-21T04:08:59.763Z,95028.00
2024-04-21T04:09:59.853Z,95029.00
2024-04-21T04:10:59.933Z,95026.00
2024-04-21T04:11:59.976Z,95026.00
2024-04-21T04:13:00.063Z,95027.00
2024-04-21T04:14:00.139Z,95026.00
2024-04-21T04:15:00.267Z,95025.00
2024-04-21T04:16:00.320Z,95025.00
2024-04-21T04:17:00.432Z,95024.00
2024-04-21T04:18:00.537Z,95025.00
2024-04-21T04:19:00.499Z,95024.00
2024-04-21T04:20:00.518Z,95026.00
2024-04-21T04:21:00.582Z,95022.00
2024-04-21T04:22:00.646Z,95021.00
2024-04-21T04:23:00.701Z,95022.00
2024-04-21T04:24:00.793Z,95021.00
2024-04-21T04:25:00.859Z,95018.00
2024-04-21T04:26:00.891Z,95017.00
2024-04-21T04:27:00.956Z,95017.00
2024-04-21T04:28:01.074Z,95018.00
2024-04-21T04:29:01.105Z,95018.00
2024-04-21T04:30:01.188Z,95018.00
2024-04-21T04:31:01.227Z,95017.00
2024-04-21T04:32:01.279Z,95013.00
2024-04-21T04:33:01.394Z,95016.00
2024-04-21T04:34:01.424Z,95018.00
2024-04-21T04:35:08.724Z,95017.00
2024-04-21T04:36:09.714Z,95015.00
2024-04-21T04:37:09.834Z,95017.00
2024-04-21T04:38:09.739Z,95019.00
2024-04-21T04:39:09.716Z,95020.00
2024-04-21T04:40:09.804Z,95020.00
2024-04-21T04:41:09.751Z,95020.00
2024-04-21T04:42:09.742Z,95018.00
2024-04-21T04:43:09.794Z,95020.00
2024-04-21T04:44:09.753Z,95019.00
2024-04-21T04:45:09.751Z,95020.00
2024-04-21T04:46:09.796Z,95018.00
2024-04-21T04:47:09.901Z,95017.00
2024-04-21T04:48:09.822Z,95018.00
2024-04-21T04:49:09.995Z,95015.00
2024-04-21T04:50:09.787Z,95015.00
2024-04-21T04:51:09.796Z,95014.00
2024-04-21T04:52:09.812Z,95011.00
2024-04-21T04:53:09.840Z,95008.00
2024-04-21T04:54:09.915Z,95007.00
2024-04-21T04:55:10.067Z,95006.00
2024-04-21T04:56:10.051Z,95008.00
2024-04-21T04:57:10.116Z,95007.00
2024-04-21T04:58:10.289Z,95006.00
2024-04-21T04:59:10.262Z,95007.00
2024-04-21T05:00:10.315Z,95004.00
2024-04-21T05:01:10.506Z,95006.00
2024-04-21T05:02:10.433Z,95005.00
2024-04-21T05:03:10.633Z,95007.00
2024-04-21T05:04:10.639Z,95006.00
2024-04-21T05:05:10.608Z,95006.00
2024-04-21T05:06:10.690Z,95007.00
2024-04-21T05:07:13.959Z,95007.00
2024-04-21T05:08:10.743Z,95006.00
2024-04-21T05:09:10.737Z,95008.00
2024-04-21T05:10:10.773Z,95007.00
2024-04-21T05:11:10.767Z,95005.00
2024-04-21T05:12:10.748Z,95006.00
2024-04-21T05:13:10.784Z,95007.00
2024-04-21T05:14:10.751Z,95006.00
2024-04-21T05:15:10.762Z,95007.00
2024-04-21T05:16:10.789Z,95006.00
2024-04-21T05:17:10.819Z,95008.00
2024-04-21T05:18:10.829Z,95008.00
2024-04-21T05:19:10.793Z,95008.00
2024-04-21T05:20:10.817Z,95008.00
2024-04-21T05:21:10.837Z,95006.00
2024-04-21T05:22:10.840Z,95008.00
2024-04-21T05:23:10.813Z,95008.00
2024-04-21T05:24:10.819Z,95006.00
2024-04-21T05:25:10.861Z,95007.00
2024-04-21T05:26:10.819Z,95007.00
2024-04-21T05:27:10.816Z,95006.00
2024-04-21T05:28:10.911Z,95008.00
2024-04-21T05:29:10.911Z,95009.00
2024-04-21T05:30:10.987Z,95010.00
2024-04-21T05:31:34.789Z,95008.00
2024-04-21T05:32:35.909Z,95006.00
2024-04-21T05:33:35.783Z,95009.00
2024-04-21T05:34:35.827Z,95008.00
2024-04-21T05:35:35.792Z,95007.00
2024-04-21T05:36:35.789Z,95008.00
2024-04-21T05:37:35.859Z,95005.00
2024-04-21T05:38:35.790Z,95004.00
2024-04-21T05:39:35.796Z,95007.00
2024-04-21T05:40:35.792Z,95007.00
2024-04-21T05:41:35.804Z,95006.00
2024-04-21T05:42:35.818Z,95007.00
2024-04-21T05:43:35.798Z,95008.00
2024-04-21T05:44:35.800Z,95008.00
2024-04-21T05:45:35.808Z,95007.00
2024-04-21T05:46:35.807Z,95006.00
2024-04-21T05:47:35.859Z,95006.00
2024-04-21T05:48:35.908Z,95004.00
2024-04-21T05:49:35.822Z,95004.00
2024-04-21T05:50:35.876Z,95002.00
2024-04-21T05:51:36.023Z,95003.00
2024-04-21T05:52:36.064Z,95004.00
2024-04-21T05:53:36.070Z,95002.00
2024-04-21T05:54:36.146Z,95004.00
2024-04-21T05:56:21.906Z,95001.00
2024-04-21T05:57:22.907Z,95000.00
2024-04-21T05:58:22.928Z,95001.00
2024-04-21T05:59:22.905Z,95000.00
2024-04-21T06:00:22.910Z,94999.00
2024-04-21T06:01:22.964Z,94999.00
2024-04-21T06:02:22.941Z,94999.00
2024-04-21T06:03:22.920Z,95000.00
2024-04-21T06:04:23.021Z,94999.00
2024-04-21T06:05:22.949Z,94999.00
2024-04-21T06:06:23.214Z,95001.00
2024-04-21T06:07:22.961Z,94997.00
2024-04-21T06:08:22.973Z,94997.00
2024-04-21T06:09:22.978Z,94997.00
2024-04-21T06:10:23.112Z,94995.00
2024-04-21T06:11:23.006Z,94995.00
2024-04-21T06:12:22.976Z,94995.00
2024-04-21T06:13:23.037Z,94995.00
2024-04-21T06:14:22.992Z,94994.00
2024-04-21T06:15:22.985Z,94994.00
2024-04-21T06:16:23.061Z,94993.00
2024-04-21T06:17:23.067Z,94992.00
2024-04-21T06:18:23.062Z,94991.00
2024-04-21T06:19:23.063Z,94990.00
2024-04-21T06:20:23.021Z,94988.00
2024-04-21T06:21:23.024Z,94985.00
2024-04-21T06:22:23.093Z,94986.00
2024-04-21T06:23:23.124Z,94983.00
2024-04-21T06:24:23.194Z,94983.00
2024-04-21T06:25:23.331Z,94982.00
2024-04-21T06:26:23.354Z,94982.00
2024-04-21T06:27:23.404Z,94981.00
2024-04-21T06:28:23.616Z,94983.00
2024-04-21T06:29:23.540Z,94983.00
2024-04-21T06:30:23.621Z,94981.00
2024-04-21T06:31:23.707Z,94983.00
2024-04-21T06:32:23.784Z,94981.00
2024-04-21T06:33:23.827Z,94981.00
2024-04-21T06:34:23.956Z,94983.00
2024-04-21T06:35:23.952Z,94982.00
2024-04-21T06:36:24.023Z,94980.00
2024-04-21T06:37:24.115Z,94979.00
2024-04-21T06:38:24.150Z,94979.00
2024-04-21T06:39:24.196Z,94977.00
2024-04-21T06:40:24.309Z,94978.00
2024-04-21T06:41:24.340Z,94974.00
2024-04-21T06:42:24.389Z,94978.00
2024-04-21T06:43:24.517Z,94975.00
2024-04-21T06:44:24.535Z,94972.00
2024-04-21T06:45:24.589Z,94974.00
2024-04-21T06:46:24.746Z,94972.00
2024-04-21T06:47:27.902Z,94972.00
2024-04-21T06:48:24.803Z,94972.00
2024-04-21T06:49:24.737Z,94971.00
2024-04-21T06:50:24.723Z,94971.00
2024-04-21T06:51:24.712Z,94969.00
2024-04-21T06:52:24.785Z,94972.00
2024-04-21T06:53:24.717Z,94969.00
2024-04-21T06:54:24.713Z,94970.00
2024-04-21T06:55:24.834Z,94964.00
2024-04-21T06:56:24.723Z,94970.00
2024-04-21T06:57:24.777Z,94967.00
2024-04-21T06:58:24.842Z,94969.00
2024-04-21T07:00:18.576Z,94963.00
2024-04-21T07:01:19.739Z,94961.00
2024-04-21T07:02:19.632Z,94962.00
2024-04-21T07:03:19.613Z,94961.00
2024-04-21T07:04:19.617Z,94960.00
2024-04-21T07:05:19.584Z,94957.00
2024-04-21T07:06:19.584Z,94957.00
2024-04-21T07:07:19.733Z,94956.00
2024-04-21T07:08:19.607Z,94956.00
2024-04-21T07:09:19.630Z,94953.00
2024-04-21T07:10:19.693Z,94955.00
2024-04-21T07:11:19.620Z,94954.00
2024-04-21T07:12:19.629Z,94954.00
2024-04-21T07:13:19.686Z,94956.00
2024-04-21T07:14:21.346Z,94952.00
2024-04-21T07:15:19.638Z,94955.00
2024-04-21T07:16:19.711Z,94954.00
2024-04-21T07:17:19.639Z,94951.00
2024-04-21T07:18:19.802Z,94952.00
2024-04-21T07:19:19.687Z,94951.00
2024-04-21T07:20:19.653Z,94949.00
2024-04-21T07:21:19.651Z,94951.00
2024-04-21T07:22:19.684Z,94952.00
2024-04-21T07:23:19.646Z,94948.00
2024-04-21T07:24:19.669Z,94949.00
2024-04-21T07:25:24.826Z,94949.00
2024-04-21T07:26:19.663Z,94948.00
2024-04-21T07:27:19.673Z,94948.00
2024-04-21T07:28:19.700Z,94947.00
2024-04-21T07:29:19.650Z,94948.00
2024-04-21T07:30:19.684Z,94947.00
2024-04-21T07:31:19.734Z,94947.00
2024-04-21T07:32:19.726Z,94946.00
2024-04-21T07:33:19.710Z,94944.00
2024-04-21T07:34:19.749Z,94943.00
2024-04-21T07:35:19.724Z,94942.00
2024-04-21T07:36:19.712Z,94944.00
2024-04-21T07:37:19.735Z,94945.00
2024-04-21T07:38:19.749Z,94945.00
2024-04-21T07:39:19.732Z,94940.00
2024-04-21T07:40:19.759Z,94942.00
2024-04-21T07:41:19.725Z,94938.00
2024-04-21T07:42:19.723Z,94937.00
2024-04-21T07:43:19.813Z,94935.00
2024-04-21T07:44:19.732Z,94938.00
2024-04-21T07:45:19.750Z,94935.00
2024-04-21T07:46:19.815Z,94934.00
2024-04-21T07:47:19.837Z,94936.00
2024-04-21T07:48:19.889Z,94936.00
2024-04-21T07:49:19.754Z,94934.00
2024-04-21T07:50:19.750Z,94934.00
2024-04-21T07:51:19.767Z,94932.00
2024-04-21T07:52:19.888Z,94935.00
2024-04-21T07:53:19.750Z,94932.00
2024-04-21T07:54:19.763Z,94933.00
2024-04-21T07:55:19.818Z,94932.00
2024-04-21T07:56:19.784Z,94931.00
2024-04-21T07:57:19.757Z,94930.00
2024-04-21T07:58:19.880Z,94930.00
2024-04-21T07:59:19.772Z,94931.00
2024-04-21T08:00:19.800Z,94931.00
2024-04-21T08:01:19.808Z,94931.00
2024-04-21T08:02:19.805Z,94929.00
2024-04-21T08:03:19.808Z,94930.00
2024-04-21T08:04:19.879Z,94929.00
2024-04-21T08:05:19.924Z,94928.00
2024-04-21T08:06:19.992Z,94929.00
2024-04-21T08:07:20.156Z,94929.00
2024-04-21T08:08:20.120Z,94929.00
2024-04-21T08:09:29.584Z,94928.00
2024-04-21T08:10:20.264Z,94928.00
2024-04-21T08:11:20.237Z,94929.00
2024-04-21T08:12:20.201Z,94926.00
2024-04-21T08:13:20.269Z,94927.00
2024-04-21T08:14:20.189Z,94928.00
2024-04-21T08:15:20.216Z,94925.00
2024-04-21T08:16:20.237Z,94925.00
2024-04-21T08:17:20.239Z,94924.00
2024-04-21T08:18:20.266Z,94925.00
2024-04-21T08:19:20.226Z,94926.00
2024-04-21T08:20:20.204Z,94925.00
2024-04-21T08:21:20.201Z,94925.00
2024-04-21T08:22:20.248Z,94925.00
2024-04-21T08:23:20.206Z,94923.00
2024-04-21T08:24:20.218Z,94924.00
2024-04-21T08:25:20.274Z,94925.00
2024-04-21T08:26:22.887Z,94924.00
2024-04-21T08:27:20.208Z,94924.00
2024-04-21T08:28:20.296Z,94920.00
2024-04-21T08:29:20.261Z,94921.00
2024-04-21T08:30:20.272Z,94921.00
2024-04-21T08:31:20.325Z,94920.00
2024-04-21T08:32:20.312Z,94918.00
2024-04-21T08:33:20.329Z,94916.00
2024-04-21T08:34:20.275Z,94914.00
2024-04-21T08:35:20.276Z,94910.00
2024-04-21T08:36:20.299Z,94910.00
2024-04-21T08:37:24.082Z,94912.00
2024-04-21T08:38:20.393Z,94912.00
2024-04-21T08:39:20.415Z,94911.00
2024-04-21T08:40:20.460Z,94913.00
2024-04-21T08:41:20.395Z,94910.00
2024-04-21T08:42:20.395Z,94910.00
2024-04-21T08:43:20.422Z,94909.00
2024-04-21T08:44:20.473Z,94912.00
2024-04-21T08:45:20.491Z,94910.00
2024-04-21T08:46:20.526Z,94912.00
2024-04-21T08:47:20.593Z,94908.00
2024-04-21T08:48:20.650Z,94906.00
2024-04-21T08:49:20.732Z,94908.00
2024-04-21T08:50:20.732Z,94905.00
2024-04-21T08:51:20.807Z,94903.00
2024-04-21T08:52:20.911Z,94905.00
2024-04-21T08:53:20.940Z,94904.00
2024-04-21T08:54:21.012Z,94904.00
2024-04-21T08:55:21.185Z,94906.00
2024-04-21T08:56:21.167Z,94905.00
2024-04-21T08:57:21.203Z,94902.00
2024-04-21T08:58:21.306Z,94901.00
2024-04-21T08:59:21.328Z,94900.00
2024-04-21T09:00:21.392Z,94900.00
2024-04-21T09:01:21.515Z,94900.00
2024-04-21T09:02:21.529Z,94900.00
2024-04-21T09:03:21.641Z,94898.00
2024-04-21T09:04:21.720Z,94897.00
2024-04-21T09:05:21.718Z,94893.00
2024-04-21T09:06:21.867Z,94895.00
2024-04-21T09:07:21.921Z,94893.00
2024-04-21T09:08:21.934Z,94892.00
2024-04-21T09:09:21.980Z,94890.00
2024-04-21T09:10:22.110Z,94890.00
2024-04-21T09:11:22.162Z,94891.00
2024-04-21T09:12:22.165Z,94890.00
2024-04-21T09:13:22.312Z,94892.00
2024-04-21T09:14:22.317Z,94889.00
2024-04-21T09:15:22.397Z,94887.00
2024-04-21T09:16:22.521Z,94889.00
2024-04-21T09:17:22.553Z,94888.00
2024-04-21T09:18:22.743Z,94886.00
2024-04-21T09:19:22.702Z,94887.00
2024-04-21T09:20:22.742Z,94887.00
2024-04-21T09:21:22.847Z,94884.00
2024-04-21T09:22:22.980Z,94884.00
2024-04-21T09:23:22.954Z,94882.00
2024-04-21T09:24:23.022Z,94880.00
2024-04-21T09:25:23.097Z,94882.00
2024-04-21T09:26:23.181Z,94880.00
2024-04-21T09:27:23.215Z,94879.00
2024-04-21T09:28:23.441Z,94875.00
2024-04-21T09:29:23.347Z,94873.00
2024-04-21T09:30:23.415Z,94872.00
2024-04-21T09:31:23.556Z,94870.00
2024-04-21T09:32:23.588Z,94866.00
2024-04-21T09:33:23.625Z,94865.00
2024-04-21T09:34:23.715Z,94865.00
2024-04-21T09:35:23.738Z,94862.00
2024-04-21T09:36:23.787Z,94859.00
2024-04-21T09:37:23.969Z,94858.00
2024-04-21T09:38:23.926Z,94859.00
2024-04-21T09:39:23.977Z,94860.00
2024-04-21T09:40:24.088Z,94861.00
2024-04-21T09:41:24.116Z,94860.00
2024-04-21T09:42:24.169Z,94858.00
2024-04-21T09:43:24.339Z,94861.00
2024-04-21T09:44:24.308Z,94859.00
2024-04-21T09:45:24.415Z,94857.00
2024-04-21T09:46:24.492Z,94858.00
2024-04-21T09:47:24.582Z,94855.00
2024-04-21T09:48:24.587Z,94857.00
2024-04-21T09:49:24.706Z,94857.00
2024-04-21T09:50:24.659Z,94857.00
2024-04-21T09:51:24.720Z,94853.00
2024-04-21T09:52:24.880Z,94855.00
2024-04-21T09:53:24.834Z,94854.00
2024-04-21T09:54:24.898Z,94851.00
2024-04-21T09:55:25.000Z,94853.00
2024-04-21T09:56:25.014Z,94850.00
2024-04-21T09:57:25.122Z,94851.00
2024-04-21T09:58:25.206Z,94850.00
2024-04-21T09:59:25.222Z,94851.00
2024-04-21T10:00:25.277Z,94850.00
2024-04-21T10:01:25.510Z,94850.00
2024-04-21T10:02:25.607Z,94848.00
2024-04-21T10:03:25.553Z,94847.00
2024-04-21T10:04:25.596Z,94845.00
2024-04-21T10:05:25.598Z,94846.00
2024-04-21T10:06:25.648Z,94843.00
2024-04-21T10:07:25.923Z,94844.00
2024-04-21T10:08:25.773Z,94844.00
2024-04-21T10:09:25.829Z,94841.00
2024-04-21T10:10:25.934Z,94841.00
2024-04-21T10:11:26.023Z,94842.00
2024-04-21T10:12:26.025Z,94841.00
2024-04-21T10:13:27.770Z,94841.00
2024-04-21T10:14:26.084Z,94841.00
2024-04-21T10:15:26.171Z,94837.00
2024-04-21T10:16:26.144Z,94837.00
2024-04-21T10:17:26.165Z,94836.00
2024-04-21T10:18:26.333Z,94832.00
2024-04-21T10:19:26.278Z,94832.00
2024-04-21T10:20:26.103Z,94831.00
2024-04-21T10:21:26.140Z,94829.00
2024-04-21T10:22:26.244Z,94829.00
2024-04-21T10:23:26.152Z,94829.00
2024-04-21T10:24:26.148Z,94827.00
2024-04-21T10:25:26.195Z,94825.00
2024-04-21T10:26:26.168Z,94822.00
2024-04-21T10:27:26.164Z,94824.00
2024-04-21T10:28:26.286Z,94822.00
2024-04-21T10:29:26.151Z,94823.00
2024-04-21T10:30:26.155Z,94820.00
2024-04-21T10:31:26.240Z,94822.00
2024-04-21T10:32:26.465Z,94821.00
2024-04-21T10:33:26.177Z,94821.00
2024-04-21T10:34:26.276Z,94820.00
2024-04-21T10:35:26.184Z,94819.00
2024-04-21T10:36:26.203Z,94819.00
2024-04-21T10:37:26.257Z,94817.00
2024-04-21T10:38:26.181Z,94817.00
2024-04-21T10:39:26.181Z,94817.00
2024-04-21T10:40:26.248Z,94813.00
2024-04-21T10:41:26.191Z,94814.00
2024-04-21T10:42:26.187Z,94813.00
2024-04-21T10:43:26.402Z,94814.00
2024-04-21T10:44:26.182Z,94812.00
2024-04-21T10:45:26.203Z,94808.00
2024-04-21T10:46:26.212Z,94807.00
2024-04-21T10:47:26.331Z,94806.00
2024-04-21T10:48:26.339Z,94806.00
2024-04-21T10:49:26.320Z,94802.00
2024-04-21T10:50:26.246Z,94801.00
2024-04-21T10:51:26.277Z,94799.00
2024-04-21T10:52:26.375Z,94798.00
2024-04-21T10:53:26.353Z,94797.00
2024-04-21T10:54:26.390Z,94796.00
2024-04-21T10:55:26.520Z,94795.00
2024-04-21T10:56:26.492Z,94794.00
2024-04-21T10:57:26.534Z,94793.00
2024-04-21T10:58:26.794Z,94792.00
2024-04-21T10:59:26.625Z,94790.00
2024-04-21T11:00:26.695Z,94787.00
2024-04-21T11:01:26.767Z,94786.00
2024-04-21T11:02:26.838Z,94787.00
2024-04-21T11:03:26.912Z,94787.00
2024-04-21T11:04:26.989Z,94782.00
2024-04-21T11:05:27.011Z,94783.00
2024-04-21T11:06:27.052Z,94778.00
2024-04-21T11:07:27.178Z,94778.00
2024-04-21T11:08:27.200Z,94775.00
2024-04-21T11:09:27.260Z,94774.00
2024-04-21T11:10:27.376Z,94772.00
2024-04-21T11:11:27.471Z,94769.00
2024-04-21T11:12:27.436Z,94771.00
2024-04-21T11:13:27.570Z,94772.00
2024-04-21T11:14:27.571Z,94770.00
2024-04-21T11:15:27.628Z,94768.00
2024-04-21T11:16:27.767Z,94768.00
2024-04-21T11:17:27.753Z,94764.00
2024-04-21T11:18:27.925Z,94765.00
2024-04-21T11:19:27.933Z,94762.00
2024-04-21T11:20:27.995Z,94761.00
2024-04-21T11:21:28.017Z,94759.00
2024-04-21T11:22:28.209Z,94759.00
2024-04-21T11:23:28.136Z,94757.00
2024-04-21T11:24:28.217Z,94755.00
2024-04-21T11:25:28.340Z,94754.00
2024-04-21T11:26:28.343Z,94754.00
2024-04-21T11:27:29.278Z,94753.00
2024-04-21T11:28:28.686Z,94751.00
2024-04-21T11:29:28.487Z,94750.00
2024-04-21T11:30:28.530Z,94747.00
2024-04-21T11:31:28.626Z,94747.00
2024-04-21T11:32:28.740Z,94747.00
2024-04-21T11:33:28.682Z,94743.00
2024-04-21T11:34:28.770Z,94743.00
2024-04-21T11:35:28.731Z,94741.00
2024-04-21T11:36:28.758Z,94739.00
2024-04-21T11:37:29.823Z,94741.00
2024-04-21T11:38:28.842Z,94739.00
2024-04-21T11:39:28.864Z,94739.00
2024-04-21T11:40:29.016Z,94739.00
2024-04-21T11:41:28.955Z,94737.00
2024-04-21T11:42:28.987Z,94737.00
2024-04-21T11:43:29.115Z,94735.00
2024-04-21T11:44:29.075Z,94733.00
2024-04-21T11:45:29.211Z,94729.00
2024-04-21T11:46:29.251Z,94730.00
2024-04-21T11:47:29.307Z,94729.00
2024-04-21T11:48:29.321Z,94726.00